Time;durP1;ratioP1;P1;durP2;ratioP2;P2;SDS_P1;SDS_P2;PMS_P1;PMS_P2;Temp;Humidity;BMP_temperature;BMP_pressure;BME280_temperature;BME280_humidity;BME280_pressure;Samples;Min_cycle;Max_cycle;Signal;HPM_P1;HPM_P2
2022/03/18 00:00:38;;;;;;;11.35;6.47;;;;;;;0.96;51.87;99592.30;1677821;84;21044;-75
2022/03/18 00:03:06;;;;;;;12.13;6.35;;;;;;;0.94;52.15;99591.34;1695206;84;21064;-75
2022/03/18 00:05:37;;;;;;;10.58;5.28;;;;;;;0.94;52.24;99599.17;1664160;86;21028;-76
2022/03/18 00:08:05;;;;;;;11.05;5.60;;;;;;;0.98;52.28;99601.47;1664167;86;21100;-76
2022/03/18 00:10:31;;;;;;;11.43;5.55;;;;;;;0.94;51.51;99593.95;1664395;86;21125;-75
2022/03/18 00:12:58;;;;;;;13.35;6.60;;;;;;;0.92;51.44;99596.50;1699572;84;20970;-74
2022/03/18 00:15:27;;;;;;;9.65;5.85;;;;;;;0.92;51.60;99605.64;1699270;84;21521;-74
2022/03/18 00:17:55;;;;;;;9.50;5.30;;;;;;;0.88;51.23;99609.41;1698625;84;21103;-75
2022/03/18 00:20:22;;;;;;;10.53;5.47;;;;;;;0.82;50.88;99609.20;1699050;84;21001;-75
2022/03/18 00:22:49;;;;;;;8.65;5.22;;;;;;;0.78;50.96;99610.78;1699332;84;21048;-75
2022/03/18 00:25:18;;;;;;;11.60;5.03;;;;;;;0.77;50.89;99606.41;1698871;84;21079;-75
2022/03/18 00:27:49;;;;;;;8.68;5.20;;;;;;;0.77;50.80;99609.02;1699031;84;21052;-75
2022/03/18 00:30:18;;;;;;;8.43;5.30;;;;;;;0.78;50.77;99615.59;1699780;83;20980;-74
2022/03/18 00:32:46;;;;;;;9.63;5.15;;;;;;;0.80;50.62;99614.35;1615429;88;21013;-74
2022/03/18 00:35:13;;;;;;;9.30;5.22;;;;;;;0.79;50.86;99615.20;1665022;85;21005;-75
2022/03/18 00:37:40;;;;;;;9.45;5.50;;;;;;;0.77;50.03;99626.87;1666727;86;21005;-75
2022/03/18 00:40:09;;;;;;;10.88;5.53;;;;;;;0.77;49.96;99615.53;1664684;86;21064;-74
2022/03/18 00:42:38;;;;;;;8.93;5.00;;;;;;;0.74;50.25;99624.14;1665021;86;21020;-74
2022/03/18 00:45:07;;;;;;;8.10;4.72;;;;;;;0.77;50.38;99622.96;1664826;86;21045;-75
2022/03/18 00:53:04;;;;;;;9.63;4.92;;;;;;;0.73;49.65;99626.28;1699520;84;20383;-75
2022/03/18 00:55:30;;;;;;;8.18;4.28;;;;;;;0.68;49.17;99631.76;1698957;84;21053;-75
2022/03/18 00:57:57;;;;;;;9.35;4.17;;;;;;;0.63;48.71;99638.09;1699219;84;21025;-75
2022/03/18 01:00:23;;;;;;;8.30;4.60;;;;;;;0.57;48.29;99633.95;1698930;84;21028;-75
2022/03/18 01:02:52;;;;;;;7.15;4.33;;;;;;;0.52;48.68;99633.80;1701962;84;21072;-75
2022/03/18 01:05:22;;;;;;;8.95;4.72;;;;;;;0.47;48.57;99633.14;1704539;84;21496;-75
2022/03/18 01:07:49;;;;;;;7.25;3.87;;;;;;;0.46;48.37;99640.50;1704621;84;21465;-75
2022/03/18 01:10:15;;;;;;;9.28;4.78;;;;;;;0.38;48.45;99637.17;1704576;84;21008;-75
2022/03/18 01:12:42;;;;;;;7.85;4.55;;;;;;;0.37;48.89;99630.19;1704536;84;21043;-75
2022/03/18 01:15:10;;;;;;;12.18;4.92;;;;;;;0.33;48.37;99640.02;1704285;84;21056;-75
2022/03/18 01:17:36;;;;;;;10.58;4.85;;;;;;;0.31;48.86;99630.36;1704401;84;21012;-75
2022/03/18 01:20:06;;;;;;;8.75;4.30;;;;;;;0.27;47.66;99638.48;1704083;84;21031;-75
2022/03/18 01:22:34;;;;;;;6.87;4.12;;;;;;;0.18;47.12;99644.65;1704423;84;21063;-75
2022/03/18 01:25:02;;;;;;;9.08;4.65;;;;;;;0.11;48.29;99636.59;1704559;84;21023;-75
2022/03/18 01:27:28;;;;;;;7.20;4.28;;;;;;;0.10;48.31;99638.73;1704575;84;21094;-75
2022/03/18 01:29:56;;;;;;;8.28;4.20;;;;;;;0.03;48.70;99630.62;1704484;84;21095;-75
2022/03/18 01:32:22;;;;;;;7.50;4.12;;;;;;;-0.02;48.12;99640.84;1704410;84;21444;-75
2022/03/18 01:34:49;;;;;;;7.20;4.20;;;;;;;-0.07;48.69;99645.89;1717661;83;21020;-75
2022/03/18 01:37:17;;;;;;;8.58;4.08;;;;;;;-0.14;48.71;99645.15;1723792;83;21028;-75
2022/03/18 01:39:44;;;;;;;8.50;4.78;;;;;;;-0.20;48.41;99647.52;1704202;84;21112;-75
2022/03/18 01:42:10;;;;;;;7.78;4.17;;;;;;;-0.25;49.06;99643.41;1704236;84;20980;-75
2022/03/18 01:44:42;;;;;;;8.90;4.35;;;;;;;-0.30;49.16;99643.63;1704538;84;21015;-75
2022/03/18 01:47:10;;;;;;;8.85;4.65;;;;;;;-0.33;49.14;99644.39;1704398;84;21418;-75
2022/03/18 01:49:38;;;;;;;6.65;4.05;;;;;;;-0.37;48.79;99643.83;1704287;84;21086;-75
2022/03/18 01:52:07;;;;;;;8.33;4.25;;;;;;;-0.42;49.13;99649.22;1704656;84;20961;-75
2022/03/18 01:54:44;;;;;;;8.10;4.58;;;;;;;-0.43;49.09;99653.96;1704091;84;21504;-75
2022/03/18 01:57:15;;;;;;;7.75;4.35;;;;;;;-0.47;49.05;99659.47;1704386;84;21063;-75
2022/03/18 01:59:41;;;;;;;7.60;4.40;;;;;;;-0.51;49.18;99655.38;1704584;84;21034;-75
2022/03/18 02:02:13;;;;;;;9.65;4.65;;;;;;;-0.52;48.81;99658.78;1703510;84;21081;-75
2022/03/18 02:04:39;;;;;;;7.37;4.35;;;;;;;-0.57;48.69;99657.30;1698285;83;21001;-75
2022/03/18 02:07:08;;;;;;;7.65;4.15;;;;;;;-0.60;48.27;99668.88;1699406;84;20962;-75
2022/03/18 02:09:37;;;;;;;8.73;3.80;;;;;;;-0.62;48.71;99661.43;1638132;88;21434;-75
2022/03/18 02:12:07;;;;;;;8.90;4.42;;;;;;;-0.67;48.81;99659.91;1665614;86;21032;-74
2022/03/18 02:14:43;;;;;;;9.85;4.40;;;;;;;-0.68;48.84;99656.44;1665098;86;21475;-74
2022/03/18 02:17:12;;;;;;;8.55;4.15;;;;;;;-0.71;48.92;99664.11;1670596;86;21042;-74
2022/03/18 02:19:42;;;;;;;11.63;4.45;;;;;;;-0.73;49.03;99663.56;1665150;86;21028;-75
2022/03/18 02:22:16;;;;;;;8.33;3.77;;;;;;;-0.75;49.27;99666.09;1665532;86;21432;-75
2022/03/18 02:24:46;;;;;;;9.98;4.70;;;;;;;-0.82;48.95;99667.98;1657426;87;21049;-75
2022/03/18 02:27:14;;;;;;;8.33;4.58;;;;;;;-0.85;48.35;99673.03;1657735;87;21047;-75
2022/03/18 02:29:42;;;;;;;7.35;4.45;;;;;;;-0.88;49.05;99667.28;1664190;86;21426;-74
2022/03/18 02:32:10;;;;;;;8.03;4.62;;;;;;;-0.90;49.21;99672.85;1663552;86;21601;-74
2022/03/18 02:34:39;;;;;;;9.65;4.28;;;;;;;-0.91;49.33;99670.17;1658921;86;21498;-74
2022/03/18 02:37:07;;;;;;;10.53;4.97;;;;;;;-0.92;49.41;99681.41;1648355;86;21487;-74
2022/03/18 02:39:34;;;;;;;8.83;4.72;;;;;;;-0.94;49.56;99691.36;1638438;87;21060;-74
2022/03/18 02:42:01;;;;;;;8.28;4.10;;;;;;;-0.96;49.50;99698.58;1638477;87;21037;-74
2022/03/18 02:44:29;;;;;;;7.72;4.20;;;;;;;-1.00;49.54;99696.70;1636906;88;21056;-74
2022/03/18 02:46:58;;;;;;;10.40;5.22;;;;;;;-0.99;49.60;99697.17;1634941;86;21458;-74
2022/03/18 02:49:25;;;;;;;8.15;4.53;;;;;;;-1.03;49.37;99701.35;1637100;88;21053;-74
2022/03/18 02:51:53;;;;;;;9.15;4.58;;;;;;;-1.05;49.36;99706.02;1699320;84;21407;-74
2022/03/18 02:54:19;;;;;;;8.73;4.62;;;;;;;-1.08;49.29;99709.37;1699472;84;21546;-74
2022/03/18 02:56:47;;;;;;;9.38;4.53;;;;;;;-1.12;49.44;99711.34;1699252;84;21004;-74
2022/03/18 02:59:14;;;;;;;7.70;4.33;;;;;;;-1.14;49.44;99711.67;1699041;84;20974;-74
2022/03/18 03:01:40;;;;;;;10.00;4.75;;;;;;;-1.16;49.57;99715.92;1699495;84;21041;-74
2022/03/18 03:04:07;;;;;;;10.23;4.60;;;;;;;-1.19;49.78;99708.88;1706102;84;21061;-75
2022/03/18 03:09:20;;;;;;;9.60;4.62;;;;;;;-1.25;49.08;99720.30;1666199;84;21000;-75
2022/03/18 03:11:47;;;;;;;8.85;4.62;;;;;;;-1.29;49.62;99719.68;1676269;86;21417;-75
2022/03/18 03:14:14;;;;;;;10.43;4.70;;;;;;;-1.30;49.65;99721.38;1704984;84;21368;-75
2022/03/18 03:16:42;;;;;;;8.93;4.70;;;;;;;-1.39;49.76;99720.55;1707680;84;21002;-74
2022/03/18 03:19:10;;;;;;;10.68;5.12;;;;;;;-1.44;49.97;99723.35;1707069;84;21096;-74
2022/03/18 03:21:37;;;;;;;9.75;4.90;;;;;;;-1.48;49.97;99717.52;1699650;84;21462;-74
2022/03/18 03:24:05;;;;;;;10.00;4.50;;;;;;;-1.50;49.92;99725.24;1676240;84;21082;-74
2022/03/18 03:26:32;;;;;;;9.00;5.20;;;;;;;-1.50;49.98;99718.74;1676301;85;21403;-74
2022/03/18 03:28:59;;;;;;;7.35;4.30;;;;;;;-1.49;49.94;99724.84;1676451;84;20996;-74
2022/03/18 03:31:25;;;;;;;7.33;4.55;;;;;;;-1.52;49.79;99736.39;1676572;84;21039;-74
2022/03/18 03:33:52;;;;;;;9.38;4.83;;;;;;;-1.54;49.94;99735.45;1675677;84;21004;-74
2022/03/18 03:36:19;;;;;;;10.13;4.85;;;;;;;-1.57;50.03;99729.69;1683507;84;21030;-74
2022/03/18 03:38:46;;;;;;;9.98;4.92;;;;;;;-1.58;49.63;99740.02;1707325;84;20981;-73
2022/03/18 03:41:12;;;;;;;10.72;4.85;;;;;;;-1.59;49.83;99735.20;1707387;84;20954;-74
2022/03/18 03:43:39;;;;;;;8.25;4.45;;;;;;;-1.63;49.85;99739.38;1704781;84;20950;-74
2022/03/18 03:46:07;;;;;;;10.00;5.20;;;;;;;-1.61;49.88;99743.36;1682322;84;21035;-74
2022/03/18 03:48:34;;;;;;;13.53;4.37;;;;;;;-1.63;49.95;99744.97;1676318;84;21098;-74
2022/03/18 03:51:01;;;;;;;9.95;5.03;;;;;;;-1.65;49.97;99750.52;1676546;84;21450;-74
2022/03/18 03:53:27;;;;;;;10.90;5.05;;;;;;;-1.64;50.20;99750.60;1684907;84;21383;-74
2022/03/18 03:55:54;;;;;;;10.23;5.20;;;;;;;-1.67;50.35;99749.14;1706966;84;21020;-75
2022/03/18 03:58:21;;;;;;;9.43;4.95;;;;;;;-1.69;50.28;99748.59;1705466;84;20981;-74
2022/03/18 04:00:47;;;;;;;9.00;5.08;;;;;;;-1.71;50.42;99759.34;1707335;84;20990;-75
2022/03/18 04:03:14;;;;;;;11.97;4.92;;;;;;;-1.74;50.57;99765.28;1704194;84;21031;-75
2022/03/18 04:05:41;;;;;;;8.63;4.87;;;;;;;-1.74;50.69;99767.88;1698999;84;21068;-74
2022/03/18 04:08:07;;;;;;;9.93;4.78;;;;;;;-1.75;50.47;99766.06;1699031;84;21028;-75
2022/03/18 04:10:34;;;;;;;11.93;4.80;;;;;;;-1.78;50.48;99768.54;1698831;84;21012;-75
2022/03/18 04:13:00;;;;;;;8.90;5.37;;;;;;;-1.76;50.54;99769.49;1699017;84;21020;-75
2022/03/18 04:15:27;;;;;;;9.45;4.92;;;;;;;-1.80;50.74;99764.95;1698871;84;21379;-75
2022/03/18 04:17:54;;;;;;;9.90;4.75;;;;;;;-1.81;50.48;99773.58;1698891;84;21056;-75
2022/03/18 04:20:24;;;;;;;14.23;4.95;;;;;;;-1.81;50.66;99777.47;1688155;84;20989;-75
2022/03/18 04:22:52;;;;;;;12.05;5.80;;;;;;;-1.82;50.71;99782.20;1699253;84;20959;-75
2022/03/18 04:25:23;;;;;;;12.58;4.80;;;;;;;-1.87;50.59;99781.56;1698620;84;21064;-75
2022/03/18 04:27:49;;;;;;;12.20;5.28;;;;;;;-1.88;50.15;99789.27;1698871;84;21056;-75
2022/03/18 04:30:16;;;;;;;7.10;4.70;;;;;;;-1.90;50.32;99783.12;1698836;84;21012;-75
2022/03/18 04:32:44;;;;;;;9.45;4.92;;;;;;;-1.88;50.43;99789.27;1699018;84;21512;-75
2022/03/18 04:35:11;;;;;;;8.20;5.03;;;;;;;-1.90;50.58;99784.02;1699540;83;21017;-75
2022/03/18 04:37:42;;;;;;;11.05;4.97;;;;;;;-1.94;50.21;99785.98;1699303;84;20997;-75
2022/03/18 04:40:12;;;;;;;11.15;5.22;;;;;;;-1.92;50.41;99792.13;1698809;84;21540;-75
2022/03/18 04:42:40;;;;;;;10.78;4.67;;;;;;;-1.94;50.54;99800.67;1699330;84;21033;-74
2022/03/18 04:45:08;;;;;;;9.08;4.60;;;;;;;-1.94;50.56;99795.47;1698782;84;21109;-75
2022/03/18 04:47:35;;;;;;;10.32;5.12;;;;;;;-1.95;50.80;99798.89;1698969;84;21028;-74
2022/03/18 04:50:04;;;;;;;10.15;5.00;;;;;;;-1.97;50.89;99801.41;1699291;84;20977;-75
2022/03/18 04:52:31;;;;;;;7.65;4.72;;;;;;;-1.96;50.93;99796.69;1699075;84;21032;-75
2022/03/18 04:54:58;;;;;;;9.63;4.87;;;;;;;-1.99;50.97;99800.03;1699217;84;21384;-74
2022/03/18 04:57:24;;;;;;;12.73;5.03;;;;;;;-2.00;50.96;99803.84;1699467;84;21010;-74
2022/03/18 04:59:52;;;;;;;8.38;5.10;;;;;;;-1.99;50.82;99803.92;1699074;84;21000;-74
2022/03/18 05:02:24;;;;;;;9.60;4.62;;;;;;;-2.00;50.94;99806.05;1699173;84;21117;-74
2022/03/18 05:04:53;;;;;;;10.28;5.47;;;;;;;-2.00;50.71;99807.34;1698774;84;21041;-74
2022/03/18 05:07:20;;;;;;;10.28;5.50;;;;;;;-1.96;50.89;99806.21;1699522;84;21001;-74
2022/03/18 05:09:47;;;;;;;14.60;5.30;;;;;;;-1.96;50.78;99811.41;1699099;84;21005;-75
2022/03/18 05:12:17;;;;;;;12.03;5.10;;;;;;;-1.94;50.93;99812.36;1699180;84;21419;-75
2022/03/18 05:14:44;;;;;;;9.15;5.03;;;;;;;-1.93;50.92;99814.14;1699759;84;21348;-75
2022/03/18 05:17:11;;;;;;;9.83;5.40;;;;;;;-1.92;50.91;99819.81;1699388;84;20997;-76
2022/03/18 05:19:39;;;;;;;11.33;5.22;;;;;;;-1.90;50.76;99824.70;1699320;84;20977;-74
2022/03/18 05:22:07;;;;;;;9.50;4.90;;;;;;;-1.91;50.72;99826.39;1699345;84;20993;-75
2022/03/18 05:24:35;;;;;;;7.85;4.58;;;;;;;-1.91;50.43;99832.02;1679239;84;21055;-74
2022/03/18 05:27:05;;;;;;;9.53;4.83;;;;;;;-1.88;50.42;99831.76;1698643;84;20997;-74
2022/03/18 05:29:32;;;;;;;11.25;6.70;;;;;;;-1.89;50.33;99835.18;1698930;84;21067;-74
2022/03/18 05:32:04;;;;;;;9.35;5.25;;;;;;;-1.84;50.26;99838.42;1698613;84;21040;-74
2022/03/18 05:34:30;;;;;;;12.05;5.37;;;;;;;-1.80;50.47;99846.83;1701480;83;21092;-75
2022/03/18 05:36:58;;;;;;;9.98;5.65;;;;;;;-1.78;50.06;99849.98;1699026;84;20984;-75
2022/03/18 05:39:24;;;;;;;11.48;5.95;;;;;;;-1.76;50.10;99848.37;1679323;84;21068;-75
2022/03/18 05:41:51;;;;;;;11.28;5.50;;;;;;;-1.75;50.18;99846.66;1699128;84;20998;-75
2022/03/18 05:44:18;;;;;;;10.65;5.65;;;;;;;-1.71;50.10;99851.20;1699251;84;21084;-75
2022/03/18 05:46:45;;;;;;;14.73;5.65;;;;;;;-1.65;50.08;99853.22;1698645;84;20968;-75
2022/03/18 05:49:12;;;;;;;13.13;6.17;;;;;;;-1.64;50.39;99856.30;1698818;84;21048;-75
2022/03/18 05:51:39;;;;;;;15.25;6.17;;;;;;;-1.60;50.43;99854.34;1699016;84;20961;-75
2022/03/18 05:54:06;;;;;;;11.88;6.22;;;;;;;-1.58;50.55;99857.02;1698726;84;21020;-75
2022/03/18 05:59:20;;;;;;;12.15;6.33;;;;;;;-1.53;50.32;99864.20;1698873;84;21024;-74
2022/03/18 06:01:47;;;;;;;18.82;6.33;;;;;;;-1.50;50.25;99855.70;1707628;83;20972;-75
2022/03/18 06:04:14;;;;;;;15.65;6.08;;;;;;;-1.47;50.08;99861.03;1705096;83;21134;-75
2022/03/18 06:06:43;;;;;;;11.88;6.22;;;;;;;-1.43;49.89;99865.96;1698937;84;21056;-75
2022/03/18 06:11:56;;;;;;;10.68;5.30;;;;;;;-1.33;49.82;99869.09;1699050;84;21048;-75
2022/03/18 06:14:26;;;;;;;10.48;5.55;;;;;;;-1.26;49.50;99866.39;1699071;84;20997;-75
2022/03/18 06:16:59;;;;;;;12.90;5.67;;;;;;;-1.23;49.19;99867.84;1708457;83;20976;-74
2022/03/18 06:19:28;;;;;;;11.45;5.10;;;;;;;-1.18;48.93;99867.16;1699044;84;21020;-74
2022/03/18 06:21:56;;;;;;;17.57;5.10;;;;;;;-1.14;47.43;99863.88;1698980;84;21055;-74
2022/03/18 06:24:24;;;;;;;10.13;5.58;;;;;;;-1.14;47.01;99869.99;1703738;84;21011;-74
2022/03/18 06:26:51;;;;;;;12.15;5.25;;;;;;;-1.09;48.41;99864.59;1713387;83;21008;-74
2022/03/18 06:29:20;;;;;;;9.78;5.40;;;;;;;-1.02;48.12;99865.78;1698912;84;21000;-75
2022/03/18 06:31:47;;;;;;;11.73;5.42;;;;;;;-1.01;47.03;99865.35;1711156;83;20941;-74
2022/03/18 06:34:16;;;;;;;8.85;5.55;;;;;;;-0.96;47.38;99871.67;1717861;83;21047;-75
2022/03/18 06:36:43;;;;;;;10.15;4.80;;;;;;;-0.93;46.02;99874.43;1687636;83;21480;-75
2022/03/18 06:39:10;;;;;;;11.03;5.40;;;;;;;-0.88;47.13;99875.53;1709440;83;21032;-75
2022/03/18 06:41:37;;;;;;;8.13;5.10;;;;;;;-0.81;46.41;99871.11;1723095;83;20985;-75
2022/03/18 06:44:06;;;;;;;9.40;5.47;;;;;;;-0.73;47.14;99869.27;1718930;83;20988;-75
2022/03/18 06:46:33;;;;;;;11.20;5.37;;;;;;;-0.69;46.07;99877.70;1718460;83;21422;-75
2022/03/18 06:48:59;;;;;;;9.70;5.00;;;;;;;-0.61;46.88;99868.94;1707345;83;21008;-75
2022/03/18 06:51:26;;;;;;;11.40;5.70;;;;;;;-0.56;46.97;99880.45;1707721;83;20999;-75
2022/03/18 06:53:54;;;;;;;12.03;5.45;;;;;;;-0.47;46.97;99876.06;1704784;84;21020;-75
2022/03/18 06:56:21;;;;;;;7.78;4.97;;;;;;;-0.38;46.89;99883.42;1704747;84;21071;-75
2022/03/18 06:58:48;;;;;;;8.65;4.90;;;;;;;-0.34;45.20;99888.83;1701437;83;21044;-75
2022/03/18 07:01:15;;;;;;;10.90;5.60;;;;;;;-0.33;45.46;99882.79;1701900;84;21028;-75
2022/03/18 07:03:41;;;;;;;13.85;5.78;;;;;;;-0.29;45.42;99888.63;1705174;83;21044;-75
2022/03/18 07:06:10;;;;;;;8.90;4.75;;;;;;;-0.23;46.08;99885.41;1707109;84;21024;-75
2022/03/18 07:08:36;;;;;;;11.33;5.37;;;;;;;-0.16;45.86;99887.45;1707224;84;21012;-75
2022/03/18 07:11:04;;;;;;;8.58;5.17;;;;;;;-0.09;44.73;99891.66;1673514;86;21028;-75
2022/03/18 07:13:33;;;;;;;9.10;4.97;;;;;;;-0.06;45.09;99892.67;1673736;86;21032;-74
2022/03/18 07:18:46;;;;;;;8.85;5.10;;;;;;;0.08;43.45;99895.00;1673830;84;21030;-74
2022/03/18 07:21:13;;;;;;;10.20;5.03;;;;;;;0.11;44.00;99898.62;1673672;85;21051;-74
2022/03/18 07:23:39;;;;;;;9.55;5.25;;;;;;;0.16;44.55;99896.20;1673675;86;21019;-74
2022/03/18 07:26:08;;;;;;;8.68;5.00;;;;;;;0.24;43.15;99896.53;1665429;86;21454;-74
2022/03/18 07:28:36;;;;;;;10.55;5.08;;;;;;;0.28;44.25;99902.36;1660467;86;21429;-74
2022/03/18 07:31:02;;;;;;;11.45;5.35;;;;;;;0.33;44.24;99893.02;1669529;86;21446;-73
2022/03/18 07:33:29;;;;;;;10.75;5.60;;;;;;;0.41;43.18;99893.34;1681514;84;20988;-74
2022/03/18 07:35:58;;;;;;;21.10;9.33;;;;;;;0.48;44.25;99895.80;1665536;85;21131;-74
2022/03/18 07:38:24;;;;;;;10.82;5.65;;;;;;;0.56;44.46;99897.42;1672198;86;21101;-75
2022/03/18 07:40:51;;;;;;;10.88;5.42;;;;;;;0.65;42.44;99900.01;1672854;86;21033;-75
2022/03/18 07:43:18;;;;;;;9.65;4.90;;;;;;;0.73;43.66;99901.63;1676905;85;21085;-75
2022/03/18 07:45:44;;;;;;;11.60;5.60;;;;;;;0.76;42.32;99901.77;1671903;86;21051;-75
2022/03/18 07:48:11;;;;;;;9.35;4.95;;;;;;;0.85;43.37;99898.62;1673346;86;21048;-75
2022/03/18 07:50:41;;;;;;;9.65;5.42;;;;;;;0.89;42.77;99904.86;1674699;84;20991;-75
2022/03/18 07:53:10;;;;;;;9.33;4.80;;;;;;;0.95;41.32;99912.05;1673563;86;20996;-75
2022/03/18 07:55:38;;;;;;;11.08;5.28;;;;;;;0.98;42.47;99904.33;1673580;86;21034;-75
2022/03/18 07:58:06;;;;;;;9.93;5.30;;;;;;;1.04;41.59;99905.90;1672574;86;21030;-75
2022/03/18 08:00:34;;;;;;;9.85;5.22;;;;;;;1.03;39.57;99905.40;1673049;86;21047;-77
2022/03/18 08:03:01;;;;;;;9.83;4.87;;;;;;;1.07;40.46;99903.39;1673265;86;21016;-76
2022/03/18 08:05:27;;;;;;;7.53;4.60;;;;;;;1.12;41.04;99911.42;1658426;85;21011;-75
2022/03/18 08:07:54;;;;;;;7.60;4.60;;;;;;;1.16;40.87;99906.80;1653367;87;21431;-75
2022/03/18 08:10:20;;;;;;;9.18;4.47;;;;;;;1.22;40.56;99907.03;1654169;87;21073;-76
2022/03/18 08:12:48;;;;;;;7.37;4.45;;;;;;;1.26;40.56;99914.17;1636558;88;21465;-75
2022/03/18 08:15:19;;;;;;;7.78;4.90;;;;;;;1.31;41.00;99918.25;1653830;86;21120;-76
2022/03/18 08:17:45;;;;;;;9.35;5.10;;;;;;;1.39;40.93;99915.53;1636409;88;21052;-75
2022/03/18 08:20:14;;;;;;;8.68;4.22;;;;;;;1.47;39.77;99915.82;1654314;86;21491;-76
2022/03/18 08:22:41;;;;;;;8.48;5.15;;;;;;;1.57;40.04;99920.97;1636455;88;21033;-75
2022/03/18 08:25:09;;;;;;;9.08;4.92;;;;;;;1.65;37.83;99922.16;1627197;88;21039;-75
2022/03/18 08:27:37;;;;;;;8.78;4.62;;;;;;;1.67;38.56;99916.55;1627581;88;21087;-75
2022/03/18 08:30:08;;;;;;;8.85;5.47;;;;;;;1.69;37.85;99923.16;1653702;87;21009;-76
2022/03/18 08:32:35;;;;;;;10.58;5.15;;;;;;;1.79;37.88;99923.09;1654037;86;21048;-76
2022/03/18 08:35:01;;;;;;;10.25;5.03;;;;;;;1.82;37.98;99914.94;1653629;87;21077;-75
2022/03/18 08:40:13;;;;;;;;;;;;;;;1.84;37.94;99921.55;1646698;87;21441;-75
2022/03/18 08:42:41;;;;;;;8.73;4.37;;;;;;;1.84;38.05;99922.84;1636499;88;20112;-75
2022/03/18 08:45:09;;;;;;;8.98;5.03;;;;;;;1.90;38.45;99925.68;1651910;87;21025;-75
2022/03/18 08:47:36;;;;;;;11.10;5.33;;;;;;;1.91;38.25;99928.77;1654196;86;21079;-76
2022/03/18 08:50:05;;;;;;;10.75;5.58;;;;;;;1.92;38.50;99921.42;1635985;88;21124;-76
2022/03/18 08:52:31;;;;;;;10.63;5.17;;;;;;;1.94;37.87;99926.67;1654112;87;21036;-76
2022/03/18 08:54:58;;;;;;;7.22;4.75;;;;;;;1.95;38.67;99931.97;1653499;87;21170;-76
2022/03/18 08:57:28;;;;;;;13.72;5.05;;;;;;;1.98;38.10;99932.09;1635508;88;21427;-75
2022/03/18 08:59:53;;;;;;;12.23;5.15;;;;;;;2.04;38.74;99926.61;1634917;88;21045;-75
2022/03/18 09:02:19;;;;;;;9.13;5.10;;;;;;;2.10;38.70;99926.83;1642565;87;21004;-75
2022/03/18 09:04:55;;;;;;;8.93;5.22;;;;;;;2.17;38.78;99930.55;1638001;86;21076;-75
2022/03/18 09:07:26;;;;;;;9.83;5.37;;;;;;;2.22;37.60;99931.20;1690008;85;21045;-75
2022/03/18 09:09:54;;;;;;;9.73;5.47;;;;;;;2.29;38.01;99931.00;1693569;85;20993;-75
2022/03/18 09:12:22;;;;;;;11.18;4.70;;;;;;;2.33;37.67;99926.77;1667458;85;21447;-75
2022/03/18 09:14:52;;;;;;;10.53;5.37;;;;;;;2.34;38.17;99922.89;1693458;85;21488;-75
2022/03/18 09:17:22;;;;;;;20.20;6.47;;;;;;;2.38;36.83;99919.95;1689723;84;21006;-76
2022/03/18 09:19:53;;;;;;;11.93;5.12;;;;;;;2.49;37.41;99919.90;1666283;85;21296;-75
2022/03/18 09:22:25;;;;;;;9.00;5.10;;;;;;;2.63;37.40;99916.87;1673108;85;20990;-76
2022/03/18 09:25:08;;;;;;;8.90;4.85;;;;;;;2.71;36.66;99920.64;1685803;85;21511;-76
2022/03/18 09:27:55;;;;;;;10.13;5.83;;;;;;;2.76;37.45;99912.92;1660877;85;21008;-77
2022/03/18 09:30:53;;;;;;;10.05;5.15;;;;;;;2.77;37.29;99909.46;1685555;85;21523;-79
2022/03/18 09:33:25;;;;;;;9.43;5.47;;;;;;;2.77;37.07;99910.77;1687844;85;21471;-75
2022/03/18 09:35:52;;;;;;;10.23;5.97;;;;;;;2.87;37.11;99913.29;1646985;85;21013;-75
2022/03/18 09:38:18;;;;;;;12.18;6.80;;;;;;;2.98;37.53;99908.38;1693990;85;21039;-75
2022/03/18 09:40:45;;;;;;;11.00;5.53;;;;;;;3.01;37.81;99905.46;1693162;85;21027;-81
2022/03/18 09:43:12;;;;;;;9.78;5.53;;;;;;;3.09;36.64;99901.77;1694090;85;20988;-80
2022/03/18 09:45:40;;;;;;;9.70;5.45;;;;;;;3.24;37.26;99901.78;1694325;85;21012;-81
2022/03/18 09:48:10;;;;;;;8.68;5.25;;;;;;;3.32;37.16;99898.95;1694530;84;20989;-81
2022/03/18 09:50:39;;;;;;;10.98;5.33;;;;;;;3.38;37.54;99898.27;1694456;84;20992;-81
2022/03/18 09:53:07;;;;;;;11.88;6.22;;;;;;;3.42;37.41;99905.38;1694308;85;21011;-81
2022/03/18 09:55:37;;;;;;;8.35;5.47;;;;;;;3.45;36.87;99912.45;1687304;85;21371;-81
2022/03/18 09:58:04;;;;;;;9.88;5.97;;;;;;;3.49;36.96;99907.77;1686173;84;21017;-80
2022/03/18 10:00:30;;;;;;;12.40;6.15;;;;;;;3.54;36.15;99900.94;1686232;84;21001;-80
2022/03/18 10:03:17;;;;;;;11.53;5.35;;;;;;;3.53;35.53;99902.66;1686223;85;21037;-80
2022/03/18 10:06:03;;;;;;;14.00;6.37;;;;;;;3.63;35.42;99896.38;1694686;84;21028;-80
2022/03/18 10:08:39;;;;;;;11.57;5.80;;;;;;;3.78;35.65;99894.19;1697341;84;21485;-80
2022/03/18 10:11:26;;;;;;;10.05;5.95;;;;;;;3.91;35.19;99889.31;1697362;84;21056;-81
2022/03/18 10:14:07;;;;;;;11.15;6.05;;;;;;;4.00;35.30;99892.60;1698672;84;20989;-80
2022/03/18 10:16:38;;;;;;;11.65;5.95;;;;;;;4.06;34.57;99891.45;1698854;84;21048;-80
2022/03/18 10:19:09;;;;;;;11.08;5.50;;;;;;;4.13;34.71;99888.16;1698805;84;21071;-79
2022/03/18 10:22:01;;;;;;;12.47;6.10;;;;;;;4.14;34.01;99878.13;1698691;84;21457;-80
2022/03/18 10:24:37;;;;;;;11.65;6.08;;;;;;;4.16;33.60;99873.80;1700688;84;21456;-80
2022/03/18 10:27:21;;;;;;;10.00;5.90;;;;;;;4.32;34.55;99872.91;1704579;84;21000;-81
2022/03/18 10:29:54;;;;;;;8.33;5.45;;;;;;;4.39;34.51;99877.91;1704646;84;21063;-81
2022/03/18 10:32:24;;;;;;;9.03;5.17;;;;;;;4.51;34.75;99874.67;1703488;84;20961;-81
2022/03/18 10:37:53;;;;;;;7.78;5.33;;;;;;;4.73;32.97;99880.04;1699075;84;20984;-81
2022/03/18 10:40:36;;;;;;;8.53;5.80;;;;;;;4.92;34.84;99872.61;1698546;84;21097;-81
2022/03/18 10:43:08;;;;;;;11.33;5.78;;;;;;;5.11;33.47;99875.27;1698794;84;21040;-81
2022/03/18 10:45:35;;;;;;;9.20;6.20;;;;;;;5.26;33.50;99873.39;1698721;84;21088;-81
2022/03/18 10:48:14;;;;;;;10.60;5.92;;;;;;;5.68;33.56;99871.23;1698837;84;21076;-82
2022/03/18 10:50:41;;;;;;;11.45;6.37;;;;;;;6.67;33.77;99866.05;1670982;84;21028;-81
2022/03/18 10:53:12;;;;;;;10.43;5.42;;;;;;;8.06;30.06;99858.70;1698225;84;21062;-81
2022/03/18 10:55:44;;;;;;;10.15;6.10;;;;;;;9.08;28.60;99854.75;1703782;84;21007;-81
2022/03/18 10:58:15;;;;;;;9.48;6.40;;;;;;;9.89;26.65;99855.59;1704494;84;21039;-79
2022/03/18 11:00:54;;;;;;;11.85;6.58;;;;;;;10.94;27.43;99855.28;1704573;84;20996;-79
2022/03/18 11:03:17;;;;;;;12.23;6.67;;;;;;;12.03;26.58;99848.75;1703285;84;21457;-78
2022/03/18 11:05:47;;;;;;;10.35;6.25;;;;;;;12.74;22.59;99844.73;1714257;83;21037;-78
2022/03/18 11:08:21;;;;;;;11.43;6.55;;;;;;;13.42;24.58;99845.83;1722733;83;21483;-79
2022/03/18 11:13:51;;;;;;;9.13;6.37;;;;;;;14.85;22.44;99841.19;1722651;83;21479;-78
2022/03/18 11:16:25;;;;;;;11.65;5.97;;;;;;;15.50;23.99;99839.55;1722588;83;21040;-79
2022/03/18 11:18:52;;;;;;;10.20;6.40;;;;;;;16.22;22.36;99829.57;1722769;83;21034;-79
2022/03/18 11:21:21;;;;;;;9.30;6.55;;;;;;;16.66;19.13;99832.55;1722677;83;21053;-79
2022/03/18 11:23:49;;;;;;;8.83;6.62;;;;;;;16.67;20.94;99835.19;1714198;83;21074;-79
2022/03/18 11:26:19;;;;;;;9.10;6.80;;;;;;;17.31;18.79;99832.69;1685135;85;21045;-80
2022/03/18 11:28:46;;;;;;;10.43;6.15;;;;;;;17.66;17.50;99834.33;1685046;85;21499;-79
2022/03/18 11:31:17;;;;;;;9.43;6.80;;;;;;;17.53;18.19;99843.67;1659760;85;21019;-79
2022/03/18 11:34:07;;;;;;;13.68;6.47;;;;;;;17.91;19.64;99839.00;1685315;83;21428;-79
2022/03/18 11:36:36;;;;;;;9.95;7.35;;;;;;;18.15;17.86;99833.80;1685087;85;21435;-79
2022/03/18 11:39:07;;;;;;;12.10;6.78;;;;;;;18.60;18.05;99825.66;1684885;85;21059;-79
2022/03/18 11:41:51;;;;;;;13.48;6.42;;;;;;;18.86;18.43;99831.95;1685314;83;21531;-79
2022/03/18 11:44:40;;;;;;;8.48;6.78;;;;;;;19.14;17.57;99834.17;1685266;85;21063;-79
2022/03/18 11:47:30;;;;;;;8.48;5.90;;;;;;;19.58;17.30;99828.58;1685116;85;21078;-79
2022/03/18 11:50:00;;;;;;;10.85;6.67;;;;;;;19.71;17.07;99820.91;1685030;85;21440;-79
2022/03/18 11:52:27;;;;;;;10.30;6.47;;;;;;;19.75;15.94;99813.14;1684953;85;21010;-80
2022/03/18 11:55:09;;;;;;;10.88;6.50;;;;;;;19.52;16.72;99822.98;1709757;83;21005;-79
2022/03/18 11:57:46;;;;;;;9.00;6.45;;;;;;;19.01;16.53;99829.66;1721707;83;21049;-79
2022/03/18 12:00:36;;;;;;;9.73;6.90;;;;;;;19.19;16.64;99815.20;1722393;83;20994;-79
2022/03/18 12:03:04;;;;;;;13.15;7.45;;;;;;;18.93;15.63;99820.53;1722546;83;21084;-79
2022/03/18 12:05:33;;;;;;;15.58;7.42;;;;;;;19.53;17.07;99819.34;1722355;83;21021;-79
2022/03/18 12:08:00;;;;;;;8.65;6.03;;;;;;;19.50;16.66;99819.45;1722610;83;21062;-79